Terminal Aerodrome Forecast
Issued by NWS

Home | Current Version | Previous Version | Text Only | Print | Product List | Glossary On
Versions: 1 2 3 4 5 6 7 8 9 10 11 12 13 14 15 16 17 18 19 20 21 22 23 24 25 26 27
000
FTAK31 PAFC 221120
TAFADU
TAF
PADU 221120Z 2212/2312 12015G25KT 4SM -RA BR OVC015
     FM221500 14011KT 6SM -RA BR OVC010
     FM222100 15012KT P6SM VCSH SCT020 OVC030
     FM230600 15015G25KT 6SM -RA BR OVC020=

USA.gov is the U.S. government's official web portal to all federal, state and local government web resources and services.